Time;durP1;ratioP1;P1;durP2;ratioP2;P2;SDS_P1;SDS_P2;PMS_P1;PMS_P2;Temp;Humidity;BMP_temperature;BMP_pressure;BME280_temperature;BME280_humidity;BME280_pressure;Samples;Min_cycle;Max_cycle;Signal;HPM_P1;HPM_P2
2022/05/30 00:00:22;;;;;;;24.08;4.63;;;;;;;;;;5031255;28;20087;-57
2022/05/30 00:02:50;;;;;;;18.08;3.72;;;;;;;;;;5034096;28;20037;-56
2022/05/30 00:05:18;;;;;;;17.02;3.42;;;;;;;;;;5034255;28;20022;-55
2022/05/30 00:07:46;;;;;;;20.80;4.18;;;;;;;;;;5033494;28;20025;-54
2022/05/30 00:10:13;;;;;;;14.02;3.88;;;;;;;;;;5033088;28;20040;-56
2022/05/30 00:12:41;;;;;;;22.92;3.88;;;;;;;;;;5032412;28;20427;-55
2022/05/30 00:15:10;;;;;;;20.10;4.25;;;;;;;;;;5032995;28;20520;-55
2022/05/30 00:17:37;;;;;;;15.75;3.90;;;;;;;;;;5033925;28;20033;-58
2022/05/30 00:20:05;;;;;;;22.60;4.10;;;;;;;;;;5025108;28;20135;-53
2022/05/30 00:22:32;;;;;;;17.70;3.38;;;;;;;;;;5023188;28;20030;-54
2022/05/30 00:24:59;;;;;;;15.13;4.07;;;;;;;;;;5021322;28;20069;-55
2022/05/30 00:27:26;;;;;;;20.60;3.80;;;;;;;;;;5022790;28;20109;-57
2022/05/30 00:29:53;;;;;;;16.83;3.35;;;;;;;;;;5023483;28;20036;-55
2022/05/30 00:32:21;;;;;;;17.95;3.53;;;;;;;;;;5021862;28;20030;-58
2022/05/30 00:34:48;;;;;;;16.27;3.42;;;;;;;;;;4995211;22;20413;-50
2022/05/30 00:37:15;;;;;;;17.40;3.75;;;;;;;;;;5035901;28;20036;-46
2022/05/30 00:39:42;;;;;;;19.25;4.30;;;;;;;;;;5041745;28;20033;-48
2022/05/30 00:42:15;;;;;;;16.52;3.55;;;;;;;;;;5033531;28;20033;-50
2022/05/30 00:44:43;;;;;;;22.75;3.38;;;;;;;;;;5032653;28;20033;-52
2022/05/30 00:47:10;;;;;;;17.65;3.25;;;;;;;;;;5033771;28;20100;-45
2022/05/30 00:49:39;;;;;;;15.38;3.15;;;;;;;;;;5033162;28;20098;-48
2022/05/30 00:52:08;;;;;;;14.40;2.72;;;;;;;;;;5032810;28;20041;-45
2022/05/30 00:54:41;;;;;;;16.25;3.45;;;;;;;;;;5015583;28;20423;-46
2022/05/30 00:57:21;;;;;;;19.05;3.33;;;;;;;;;;5032946;28;20034;-48
2022/05/30 00:59:55;;;;;;;16.13;3.10;;;;;;;;;;5032983;28;20056;-49
2022/05/30 01:02:23;;;;;;;11.85;2.95;;;;;;;;;;5032870;28;20048;-47
2022/05/30 01:07:37;;;;;;;18.65;3.22;;;;;;;;;;5032344;28;20048;-47
2022/05/30 01:10:06;;;;;;;17.67;3.63;;;;;;;;;;5032762;28;20048;-45
2022/05/30 01:12:41;;;;;;;12.50;2.83;;;;;;;;;;5032931;28;20037;-46
2022/05/30 01:15:16;;;;;;;10.90;2.88;;;;;;;;;;5032236;28;20037;-50
2022/05/30 01:17:56;;;;;;;12.82;2.85;;;;;;;;;;5033278;28;20430;-47
2022/05/30 01:20:29;;;;;;;15.68;3.22;;;;;;;;;;5031366;28;20765;-46
2022/05/30 01:23:15;;;;;;;11.00;2.88;;;;;;;;;;5032636;28;20045;-45
2022/05/30 01:25:51;;;;;;;16.83;2.63;;;;;;;;;;5032849;28;20056;-46
2022/05/30 01:28:23;;;;;;;10.32;2.83;;;;;;;;;;5032145;28;20038;-48
2022/05/30 01:30:51;;;;;;;11.32;2.70;;;;;;;;;;5032230;28;20026;-48
2022/05/30 01:33:18;;;;;;;13.05;2.38;;;;;;;;;;5032851;28;20479;-47
2022/05/30 01:35:45;;;;;;;15.88;2.95;;;;;;;;;;5031599;28;20041;-46
2022/05/30 01:38:12;;;;;;;12.38;2.58;;;;;;;;;;5032339;28;20112;-45
2022/05/30 01:40:39;;;;;;;13.25;3.17;;;;;;;;;;5032126;28;20091;-47
2022/05/30 01:43:06;;;;;;;10.82;2.58;;;;;;;;;;5032992;28;20028;-49
2022/05/30 01:45:33;;;;;;;14.32;2.67;;;;;;;;;;5033198;28;20427;-48
2022/05/30 01:48:00;;;;;;;12.88;2.72;;;;;;;;;;5032217;28;20030;-46
2022/05/30 01:50:29;;;;;;;14.98;2.58;;;;;;;;;;5033005;28;20566;-49
2022/05/30 01:52:56;;;;;;;12.68;2.30;;;;;;;;;;5043425;28;20041;-48
2022/05/30 01:55:23;;;;;;;19.52;3.00;;;;;;;;;;5032766;28;20503;-50
2022/05/30 01:57:50;;;;;;;12.27;2.53;;;;;;;;;;5032170;28;20048;-47
2022/05/30 02:00:17;;;;;;;16.17;2.20;;;;;;;;;;5032319;28;20108;-48
2022/05/30 02:02:44;;;;;;;12.45;2.38;;;;;;;;;;5032960;28;20120;-46
2022/05/30 02:05:12;;;;;;;9.32;2.65;;;;;;;;;;5032903;28;20060;-47
2022/05/30 02:07:39;;;;;;;11.48;2.55;;;;;;;;;;5032029;28;20029;-46
2022/05/30 02:10:06;;;;;;;9.13;2.08;;;;;;;;;;5032187;28;20188;-47
2022/05/30 02:12:33;;;;;;;12.70;2.63;;;;;;;;;;5032725;28;20025;-49
2022/05/30 02:15:00;;;;;;;14.20;2.53;;;;;;;;;;5031760;28;20030;-48
2022/05/30 02:17:27;;;;;;;9.27;2.40;;;;;;;;;;5032805;28;20436;-50
2022/05/30 02:19:54;;;;;;;11.80;2.60;;;;;;;;;;5031674;28;20509;-49
2022/05/30 02:22:29;;;;;;;13.55;2.67;;;;;;;;;;5032346;28;20064;-51
2022/05/30 02:24:57;;;;;;;13.25;2.63;;;;;;;;;;5031487;28;20059;-49
2022/05/30 02:27:24;;;;;;;10.02;2.38;;;;;;;;;;5031825;28;20033;-50
2022/05/30 02:29:54;;;;;;;7.10;2.42;;;;;;;;;;5032265;28;20044;-47
2022/05/30 02:32:21;;;;;;;11.93;2.47;;;;;;;;;;5032458;28;20033;-46
2022/05/30 02:37:33;;;;;;;4.78;1.80;;;;;;;;;;5031342;28;20567;-45
2022/05/30 02:40:00;;;;;;;11.35;2.30;;;;;;;;;;5032289;28;20029;-47
2022/05/30 02:42:27;;;;;;;9.90;2.53;;;;;;;;;;5032168;28;20179;-48
2022/05/30 02:44:54;;;;;;;10.13;2.13;;;;;;;;;;5031938;28;20037;-46
2022/05/30 02:47:21;;;;;;;6.57;1.75;;;;;;;;;;5031216;28;20431;-49
2022/05/30 02:49:49;;;;;;;10.45;2.30;;;;;;;;;;5032252;28;20028;-47
2022/05/30 02:52:16;;;;;;;11.43;2.10;;;;;;;;;;5031710;28;20509;-50
2022/05/30 02:54:43;;;;;;;11.23;1.92;;;;;;;;;;5031858;28;20033;-46
2022/05/30 02:57:10;;;;;;;10.45;2.17;;;;;;;;;;5031078;28;20037;-48
2022/05/30 02:59:37;;;;;;;10.68;2.10;;;;;;;;;;5031603;28;20108;-46
2022/05/30 03:02:04;;;;;;;8.43;2.00;;;;;;;;;;5031707;28;20048;-47
2022/05/30 03:04:31;;;;;;;13.68;2.40;;;;;;;;;;5031609;28;20036;-46
2022/05/30 03:06:58;;;;;;;11.93;2.22;;;;;;;;;;5031428;28;20081;-47
2022/05/30 03:09:25;;;;;;;11.25;2.38;;;;;;;;;;5031837;28;20022;-50
2022/05/30 03:11:52;;;;;;;9.75;2.08;;;;;;;;;;5031021;28;20060;-46
2022/05/30 03:14:19;;;;;;;10.32;2.00;;;;;;;;;;5031799;28;20057;-47
2022/05/30 03:16:45;;;;;;;8.80;2.40;;;;;;;;;;5031470;28;20804;-48
2022/05/30 03:19:12;;;;;;;9.38;1.70;;;;;;;;;;5031585;28;20029;-47
2022/05/30 03:21:39;;;;;;;10.50;2.40;;;;;;;;;;5030943;28;20390;-47
2022/05/30 03:24:07;;;;;;;10.82;2.28;;;;;;;;;;5031741;28;20030;-47
2022/05/30 03:26:34;;;;;;;14.52;2.13;;;;;;;;;;5031266;28;20703;-50
2022/05/30 03:29:01;;;;;;;12.93;2.10;;;;;;;;;;5031343;28;20029;-45
2022/05/30 03:31:28;;;;;;;9.65;1.92;;;;;;;;;;5033191;28;20022;-47
2022/05/30 03:33:55;;;;;;;8.27;2.20;;;;;;;;;;5035005;28;20048;-46
2022/05/30 03:36:26;;;;;;;9.77;2.38;;;;;;;;;;5035407;28;20042;-50
2022/05/30 03:38:53;;;;;;;7.80;2.50;;;;;;;;;;5035819;28;20036;-45
2022/05/30 03:41:21;;;;;;;6.65;2.15;;;;;;;;;;5034905;28;20018;-47
2022/05/30 03:43:48;;;;;;;11.73;2.03;;;;;;;;;;5035565;28;20057;-50
2022/05/30 03:46:15;;;;;;;8.40;1.90;;;;;;;;;;5034615;28;20653;-46
2022/05/30 03:48:42;;;;;;;7.55;1.70;;;;;;;;;;5034693;28;20394;-49
2022/05/30 03:51:12;;;;;;;12.02;2.20;;;;;;;;;;5035352;28;20037;-49
2022/05/30 03:53:39;;;;;;;8.25;2.10;;;;;;;;;;5035350;28;20033;-46
2022/05/30 03:56:06;;;;;;;8.85;1.90;;;;;;;;;;5034419;28;20120;-44
2022/05/30 03:58:33;;;;;;;7.25;2.13;;;;;;;;;;5035412;28;20471;-46
2022/05/30 04:01:00;;;;;;;9.40;2.00;;;;;;;;;;5034616;28;20036;-46
2022/05/30 04:03:27;;;;;;;6.95;1.85;;;;;;;;;;5017125;28;20053;-45
2022/05/30 04:05:54;;;;;;;5.78;1.83;;;;;;;;;;5016732;28;20036;-44
2022/05/30 04:08:21;;;;;;;10.88;1.67;;;;;;;;;;5034347;28;20040;-49
2022/05/30 04:10:48;;;;;;;5.80;1.67;;;;;;;;;;5034726;28;20033;-47
2022/05/30 04:13:15;;;;;;;6.47;1.58;;;;;;;;;;5034270;28;20022;-45
2022/05/30 04:15:42;;;;;;;9.88;2.63;;;;;;;;;;5033856;28;20458;-49
2022/05/30 04:18:09;;;;;;;5.40;1.42;;;;;;;;;;5034674;28;20104;-47
2022/05/30 04:20:36;;;;;;;7.82;1.70;;;;;;;;;;5034155;28;20029;-46
2022/05/30 04:23:03;;;;;;;4.90;1.63;;;;;;;;;;5034347;28;20029;-46
2022/05/30 04:25:30;;;;;;;7.57;1.63;;;;;;;;;;5034174;28;20058;-48
2022/05/30 04:27:57;;;;;;;6.40;1.77;;;;;;;;;;5034282;28;20033;-47
2022/05/30 04:30:24;;;;;;;4.40;1.38;;;;;;;;;;5033944;28;20026;-44
2022/05/30 04:32:52;;;;;;;5.55;1.70;;;;;;;;;;5034127;28;20025;-47
2022/05/30 04:35:19;;;;;;;9.52;1.67;;;;;;;;;;5033857;28;20124;-45
2022/05/30 04:37:47;;;;;;;5.45;1.67;;;;;;;;;;5033975;28;20053;-47
2022/05/30 04:40:17;;;;;;;6.90;1.35;;;;;;;;;;5034561;28;20064;-45
2022/05/30 04:42:45;;;;;;;4.05;1.30;;;;;;;;;;5034172;28;20030;-46
2022/05/30 04:45:13;;;;;;;10.07;1.73;;;;;;;;;;5034044;28;20030;-44
2022/05/30 04:47:40;;;;;;;6.95;1.50;;;;;;;;;;5033970;28;20471;-44
2022/05/30 04:50:09;;;;;;;5.50;1.40;;;;;;;;;;5034524;28;20021;-48
2022/05/30 04:52:36;;;;;;;3.47;1.10;;;;;;;;;;5033665;28;20060;-45
2022/05/30 04:55:03;;;;;;;6.68;1.60;;;;;;;;;;5033728;28;20053;-46
2022/05/30 04:57:30;;;;;;;7.60;2.03;;;;;;;;;;5033630;28;20025;-45
2022/05/30 04:59:58;;;;;;;6.18;1.55;;;;;;;;;;5034093;28;20479;-46
2022/05/30 05:02:25;;;;;;;6.20;1.40;;;;;;;;;;5033244;28;20032;-45
2022/05/30 05:04:52;;;;;;;4.03;1.27;;;;;;;;;;5034183;28;20028;-45
2022/05/30 05:07:19;;;;;;;2.80;1.08;;;;;;;;;;5033829;28;20030;-45
2022/05/30 05:09:53;;;;;;;6.57;1.27;;;;;;;;;;5033662;28;20057;-51
2022/05/30 05:12:20;;;;;;;4.80;1.20;;;;;;;;;;5033922;28;20483;-45
2022/05/30 05:14:47;;;;;;;3.47;1.08;;;;;;;;;;5015101;28;20025;-47
2022/05/30 05:17:14;;;;;;;5.07;1.10;;;;;;;;;;5034030;28;20502;-50
2022/05/30 05:19:42;;;;;;;5.20;1.20;;;;;;;;;;5033496;28;20048;-45
2022/05/30 05:22:13;;;;;;;7.53;1.40;;;;;;;;;;5033257;28;20540;-44
2022/05/30 05:24:40;;;;;;;3.73;1.40;;;;;;;;;;5033822;28;20108;-46
2022/05/30 05:27:07;;;;;;;6.00;1.30;;;;;;;;;;5032829;28;20040;-44
2022/05/30 05:29:35;;;;;;;4.03;1.10;;;;;;;;;;5033592;28;20073;-47
2022/05/30 05:32:04;;;;;;;6.88;1.35;;;;;;;;;;5033196;28;20089;-47
2022/05/30 05:34:31;;;;;;;2.55;0.90;;;;;;;;;;5032820;28;20421;-45
2022/05/30 05:36:57;;;;;;;4.72;1.10;;;;;;;;;;5033144;28;20064;-46
2022/05/30 05:39:24;;;;;;;3.50;0.93;;;;;;;;;;5032707;28;20056;-45
2022/05/30 05:41:51;;;;;;;3.30;1.00;;;;;;;;;;5033094;28;20561;-44
2022/05/30 05:44:19;;;;;;;4.53;1.38;;;;;;;;;;5032892;28;20083;-46
2022/05/30 05:46:46;;;;;;;3.35;1.17;;;;;;;;;;5032551;28;20029;-45
2022/05/30 05:49:13;;;;;;;1.60;0.95;;;;;;;;;;5032652;28;20604;-47
2022/05/30 05:51:40;;;;;;;2.88;1.05;;;;;;;;;;5032701;28;20033;-47
2022/05/30 05:54:08;;;;;;;2.30;0.95;;;;;;;;;;5032544;28;20032;-48
2022/05/30 05:56:35;;;;;;;3.30;1.00;;;;;;;;;;5032064;28;20029;-45
2022/05/30 05:59:03;;;;;;;2.55;1.05;;;;;;;;;;5033001;28;20032;-47
2022/05/30 06:01:31;;;;;;;4.18;1.23;;;;;;;;;;5032962;28;20483;-47
2022/05/30 06:04:00;;;;;;;4.68;1.10;;;;;;;;;;5032141;28;20026;-49
2022/05/30 06:06:28;;;;;;;1.92;0.98;;;;;;;;;;5032551;28;20107;-45
2022/05/30 06:09:00;;;;;;;6.15;1.00;;;;;;;;;;5032578;28;20033;-46
2022/05/30 06:11:27;;;;;;;2.83;1.00;;;;;;;;;;5032982;28;20036;-44
2022/05/30 06:13:55;;;;;;;2.28;0.80;;;;;;;;;;5031929;28;20135;-47
2022/05/30 06:16:26;;;;;;;2.47;0.90;;;;;;;;;;5032871;28;20041;-44
2022/05/30 06:18:55;;;;;;;3.87;1.07;;;;;;;;;;5014369;28;20521;-45
2022/05/30 06:21:24;;;;;;;2.17;0.90;;;;;;;;;;5032539;28;20029;-45
2022/05/30 06:23:52;;;;;;;2.30;0.90;;;;;;;;;;5031433;28;20113;-45
2022/05/30 06:26:19;;;;;;;6.10;0.98;;;;;;;;;;5032621;28;20091;-47
2022/05/30 06:28:47;;;;;;;2.92;0.88;;;;;;;;;;5031674;28;20049;-47
2022/05/30 06:31:16;;;;;;;1.73;0.82;;;;;;;;;;5032511;28;20025;-45
2022/05/30 06:33:43;;;;;;;3.22;0.88;;;;;;;;;;5031789;28;20491;-45
2022/05/30 06:36:12;;;;;;;2.17;0.80;;;;;;;;;;5031583;28;20055;-44
2022/05/30 06:38:40;;;;;;;1.30;0.80;;;;;;;;;;5031798;28;20072;-48
2022/05/30 06:41:10;;;;;;;2.65;0.80;;;;;;;;;;5031123;28;20112;-47
2022/05/30 06:43:37;;;;;;;4.68;0.80;;;;;;;;;;5031884;28;20072;-46
2022/05/30 06:46:05;;;;;;;4.03;0.90;;;;;;;;;;5031851;28;20025;-45
2022/05/30 06:48:32;;;;;;;1.58;0.63;;;;;;;;;;5031663;28;20513;-45
2022/05/30 06:50:59;;;;;;;4.57;0.88;;;;;;;;;;5032078;28;20112;-45
2022/05/30 06:53:26;;;;;;;3.25;0.73;;;;;;;;;;5031365;28;20044;-44
2022/05/30 06:55:53;;;;;;;3.00;0.85;;;;;;;;;;5031310;28;20025;-44
2022/05/30 06:58:21;;;;;;;3.53;0.90;;;;;;;;;;5031714;28;20033;-48
2022/05/30 07:00:48;;;;;;;2.08;0.75;;;;;;;;;;5032050;28;20112;-44
2022/05/30 07:03:17;;;;;;;1.90;0.70;;;;;;;;;;5030988;28;20056;-46
2022/05/30 07:05:45;;;;;;;3.17;0.80;;;;;;;;;;5031013;28;20025;-46
2022/05/30 07:08:12;;;;;;;1.90;0.95;;;;;;;;;;5031101;28;20061;-45
2022/05/30 07:10:40;;;;;;;2.42;0.80;;;;;;;;;;5031883;28;20026;-44
2022/05/30 07:13:07;;;;;;;1.95;0.63;;;;;;;;;;5030940;28;20025;-46
2022/05/30 07:15:36;;;;;;;1.58;0.73;;;;;;;;;;5031647;28;20041;-46
2022/05/30 07:18:10;;;;;;;1.67;0.60;;;;;;;;;;5030866;28;20033;-45
2022/05/30 07:20:37;;;;;;;1.38;0.60;;;;;;;;;;5032198;28;20022;-45
2022/05/30 07:23:04;;;;;;;3.42;0.73;;;;;;;;;;5031862;28;20509;-44
2022/05/30 07:25:34;;;;;;;1.73;0.70;;;;;;;;;;5031525;28;20480;-44
2022/05/30 07:28:01;;;;;;;1.23;0.63;;;;;;;;;;5030689;28;20057;-44
2022/05/30 07:30:29;;;;;;;4.07;0.82;;;;;;;;;;5031341;28;20391;-46
2022/05/30 07:32:56;;;;;;;1.27;0.65;;;;;;;;;;5031373;28;20105;-48
2022/05/30 07:35:24;;;;;;;4.07;0.82;;;;;;;;;;5031413;28;20494;-45
2022/05/30 07:37:51;;;;;;;2.17;0.70;;;;;;;;;;5030580;28;20515;-46
2022/05/30 07:40:18;;;;;;;2.90;0.82;;;;;;;;;;5031094;28;20380;-47
2022/05/30 07:42:45;;;;;;;1.58;0.60;;;;;;;;;;5031322;28;20029;-44
2022/05/30 07:45:12;;;;;;;2.55;0.60;;;;;;;;;;5202057;22;20121;-63
2022/05/30 07:47:39;;;;;;;4.07;0.93;;;;;;;;;;5045883;28;20029;-63
2022/05/30 07:50:08;;;;;;;1.83;0.75;;;;;;;;;;5071730;28;20376;-64
2022/05/30 07:52:35;;;;;;;1.95;0.60;;;;;;;;;;5071918;28;20025;-64
2022/05/30 07:55:02;;;;;;;2.58;0.70;;;;;;;;;;5071381;28;20017;-64
2022/05/30 08:00:15;;;;;;;1.75;0.63;;;;;;;;;;5071931;28;20040;-64
2022/05/30 08:02:42;;;;;;;2.42;0.80;;;;;;;;;;5071091;28;20021;-64
2022/05/30 08:05:11;;;;;;;2.55;0.82;;;;;;;;;;5070997;28;20070;-64
2022/05/30 08:07:38;;;;;;;2.13;0.80;;;;;;;;;;5071510;28;20052;-64
2022/05/30 08:10:09;;;;;;;5.05;0.80;;;;;;;;;;5071525;28;20482;-64
2022/05/30 08:12:36;;;;;;;3.30;0.77;;;;;;;;;;5071106;28;20027;-63
2022/05/30 08:15:04;;;;;;;1.65;0.63;;;;;;;;;;5070935;28;20087;-64
2022/05/30 08:17:30;;;;;;;2.50;0.55;;;;;;;;;;5072954;28;20023;-64
2022/05/30 08:19:59;;;;;;;6.10;0.80;;;;;;;;;;5074542;28;20455;-64
2022/05/30 08:22:26;;;;;;;3.78;0.70;;;;;;;;;;5075259;28;20032;-63
2022/05/30 08:24:53;;;;;;;3.42;0.80;;;;;;;;;;5074626;28;20040;-64
2022/05/30 08:27:21;;;;;;;3.80;0.50;;;;;;;;;;5074972;28;20028;-64
2022/05/30 08:29:48;;;;;;;1.08;0.60;;;;;;;;;;5075200;28;20032;-63
2022/05/30 08:32:15;;;;;;;1.42;0.50;;;;;;;;;;5074324;28;20027;-63
2022/05/30 08:34:43;;;;;;;2.05;0.60;;;;;;;;;;5074440;28;20129;-63
2022/05/30 08:37:11;;;;;;;4.55;0.80;;;;;;;;;;5074648;28;20073;-64
2022/05/30 08:42:29;;;;;;;2.15;0.50;;;;;;;;;;5074307;28;20120;-64
2022/05/30 08:44:56;;;;;;;2.72;0.60;;;;;;;;;;5056482;28;20048;-64
2022/05/30 08:47:32;;;;;;;3.42;0.70;;;;;;;;;;5074316;28;20103;-63
2022/05/30 08:50:05;;;;;;;2.25;0.70;;;;;;;;;;5074535;28;20485;-64
2022/05/30 08:52:38;;;;;;;2.45;0.63;;;;;;;;;;5074193;28;20024;-64
2022/05/30 08:55:18;;;;;;;1.23;0.50;;;;;;;;;;5074219;28;20394;-64
2022/05/30 08:57:58;;;;;;;5.38;0.85;;;;;;;;;;5074381;28;20119;-63
2022/05/30 09:00:27;;;;;;;4.38;0.75;;;;;;;;;;5073977;28;20024;-63
2022/05/30 09:02:57;;;;;;;3.08;0.80;;;;;;;;;;5074202;28;20020;-64
2022/05/30 09:06:04;;;;;;;5.50;0.70;;;;;;;;;;5073923;28;20140;-63
2022/05/30 09:08:34;;;;;;;2.10;0.60;;;;;;;;;;4992644;28;20531;-63
2022/05/30 09:11:04;;;;;;;2.13;0.70;;;;;;;;;;4992684;28;20392;-64
2022/05/30 09:13:36;;;;;;;2.78;0.57;;;;;;;;;;5035758;28;20028;-64
2022/05/30 09:16:09;;;;;;;2.65;0.80;;;;;;;;;;5074124;28;20063;-64
2022/05/30 09:18:47;;;;;;;5.25;0.70;;;;;;;;;;5073722;28;20021;-64
2022/05/30 09:21:15;;;;;;;4.18;0.63;;;;;;;;;;5074204;28;20036;-64
2022/05/30 09:23:42;;;;;;;4.53;0.98;;;;;;;;;;5073503;28;20482;-64
2022/05/30 09:26:18;;;;;;;5.18;1.00;;;;;;;;;;5074014;28;20393;-64
2022/05/30 09:28:47;;;;;;;3.20;0.70;;;;;;;;;;5072446;28;20036;-63
2022/05/30 09:31:32;;;;;;;3.90;0.80;;;;;;;;;;5073943;28;20016;-63
2022/05/30 09:34:00;;;;;;;2.60;0.70;;;;;;;;;;5073163;28;20032;-64
2022/05/30 09:36:31;;;;;;;6.20;0.88;;;;;;;;;;5073857;28;20503;-64
2022/05/30 09:38:58;;;;;;;3.72;0.90;;;;;;;;;;5073310;28;20543;-64
2022/05/30 09:41:26;;;;;;;4.97;0.70;;;;;;;;;;5073695;28;20031;-63
2022/05/30 09:43:56;;;;;;;3.25;0.68;;;;;;;;;;5072769;28;20020;-63
2022/05/30 09:46:32;;;;;;;6.53;0.90;;;;;;;;;;5073661;28;20024;-63
2022/05/30 09:49:01;;;;;;;4.35;0.80;;;;;;;;;;5072889;28;20157;-63
2022/05/30 09:51:32;;;;;;;3.50;0.70;;;;;;;;;;5073552;28;20021;-63
2022/05/30 09:53:59;;;;;;;3.25;0.90;;;;;;;;;;5072215;28;20047;-63
2022/05/30 09:56:28;;;;;;;3.05;0.65;;;;;;;;;;5073355;28;20044;-63
2022/05/30 09:59:06;;;;;;;1.55;0.80;;;;;;;;;;5055537;28;20468;-63
2022/05/30 10:01:35;;;;;;;4.35;0.85;;;;;;;;;;5073179;28;20096;-63
2022/05/30 10:04:17;;;;;;;1.60;0.50;;;;;;;;;;5072478;28;20050;-63
2022/05/30 10:06:44;;;;;;;8.05;0.80;;;;;;;;;;5072433;28;20078;-63
2022/05/30 10:09:19;;;;;;;4.53;0.70;;;;;;;;;;5073251;28;20532;-63
2022/05/30 10:11:53;;;;;;;3.08;0.60;;;;;;;;;;5072553;28;20488;-63
2022/05/30 10:14:21;;;;;;;3.35;0.70;;;;;;;;;;5072398;28;20487;-63
2022/05/30 10:16:49;;;;;;;3.50;0.70;;;;;;;;;;5072811;28;20535;-63
2022/05/30 10:19:34;;;;;;;3.40;0.90;;;;;;;;;;5072747;28;20401;-63
2022/05/30 10:30:40;;;;;;;3.92;0.50;;;;;;;;;;5072582;28;20405;-63
2022/05/30 10:33:16;;;;;;;2.97;0.73;;;;;;;;;;5072934;28;20050;-63
2022/05/30 10:35:46;;;;;;;3.05;0.88;;;;;;;;;;5072188;28;20040;-63
2022/05/30 10:38:21;;;;;;;3.55;0.70;;;;;;;;;;5072162;28;20023;-63
2022/05/30 10:40:48;;;;;;;3.75;0.85;;;;;;;;;;5071812;28;20049;-64
2022/05/30 10:43:28;;;;;;;3.83;0.70;;;;;;;;;;5072287;28;20032;-63
2022/05/30 10:45:56;;;;;;;6.65;0.90;;;;;;;;;;5072335;28;20056;-63
2022/05/30 10:48:25;;;;;;;3.75;0.88;;;;;;;;;;5071668;28;20039;-63
2022/05/30 10:50:58;;;;;;;4.45;0.60;;;;;;;;;;5072524;28;20520;-63
2022/05/30 10:53:25;;;;;;;2.53;0.70;;;;;;;;;;5071659;28;20053;-63
2022/05/30 10:55:53;;;;;;;6.25;0.70;;;;;;;;;;5054461;28;20037;-63
2022/05/30 10:58:29;;;;;;;1.92;0.52;;;;;;;;;;5072097;28;20516;-63
2022/05/30 11:01:01;;;;;;;4.05;0.70;;;;;;;;;;5072062;28;20036;-63
2022/05/30 11:03:36;;;;;;;3.08;0.88;;;;;;;;;;5072264;28;20030;-63
2022/05/30 11:06:03;;;;;;;3.67;0.55;;;;;;;;;;5071758;28;20037;-63
2022/05/30 11:08:38;;;;;;;4.78;0.70;;;;;;;;;;5072387;28;20391;-63
2022/05/30 11:11:12;;;;;;;1.88;0.70;;;;;;;;;;5072288;28;20025;-63
2022/05/30 11:13:48;;;;;;;4.40;0.88;;;;;;;;;;5053551;28;20024;-63
2022/05/30 11:16:22;;;;;;;2.63;0.57;;;;;;;;;;5072067;28;20450;-63
2022/05/30 11:18:59;;;;;;;4.18;0.70;;;;;;;;;;5071597;28;20021;-63
2022/05/30 11:21:52;;;;;;;3.88;0.90;;;;;;;;;;5072033;28;20028;-63
2022/05/30 11:24:19;;;;;;;2.90;0.70;;;;;;;;;;5068409;28;20487;-63
2022/05/30 11:27:07;;;;;;;4.72;0.60;;;;;;;;;;5071797;28;20112;-63
2022/05/30 11:29:37;;;;;;;3.25;0.70;;;;;;;;;;5071981;28;20086;-63
2022/05/30 11:32:04;;;;;;;1.83;0.52;;;;;;;;;;5071396;28;20025;-63
2022/05/30 11:34:49;;;;;;;2.67;0.60;;;;;;;;;;5070128;28;20058;-64
2022/05/30 11:37:22;;;;;;;5.50;0.80;;;;;;;;;;5071806;28;20037;-63
2022/05/30 11:40:10;;;;;;;5.90;0.85;;;;;;;;;;5071728;28;20039;-63
2022/05/30 11:42:44;;;;;;;2.58;0.75;;;;;;;;;;5057934;28;20044;-64
2022/05/30 11:45:21;;;;;;;3.83;0.80;;;;;;;;;;5051376;28;20075;-63
2022/05/30 11:48:02;;;;;;;3.15;0.70;;;;;;;;;;5051121;28;20029;-63
2022/05/30 11:50:35;;;;;;;3.20;0.70;;;;;;;;;;5051359;28;20025;-64
2022/05/30 11:53:11;;;;;;;3.80;1.08;;;;;;;;;;5053678;28;20033;-64
2022/05/30 11:55:47;;;;;;;1.45;0.68;;;;;;;;;;5055199;28;20069;-63
2022/05/30 11:58:40;;;;;;;5.13;0.85;;;;;;;;;;5054799;28;20040;-63
2022/05/30 12:01:08;;;;;;;4.47;1.20;;;;;;;;;;5025073;28;20044;-64
2022/05/30 12:03:37;;;;;;;2.75;0.70;;;;;;;;;;5055085;28;20096;-63
2022/05/30 12:06:06;;;;;;;4.50;1.00;;;;;;;;;;5055411;28;20104;-63
2022/05/30 12:08:39;;;;;;;4.38;0.90;;;;;;;;;;5033989;28;20037;-62
2022/05/30 12:11:06;;;;;;;3.63;0.82;;;;;;;;;;5035255;28;20038;-62
2022/05/30 12:13:37;;;;;;;3.88;0.85;;;;;;;;;;5021750;28;20032;-62
2022/05/30 12:16:11;;;;;;;7.50;1.00;;;;;;;;;;5053896;28;20053;-62
2022/05/30 12:24:15;;;;;;;4.93;1.08;;;;;;;;;;5054151;28;20170;-62
2022/05/30 12:26:48;;;;;;;9.98;1.20;;;;;;;;;;5054263;28;20044;-61
2022/05/30 12:29:30;;;;;;;9.73;0.90;;;;;;;;;;5054600;28;20059;-61
2022/05/30 12:32:16;;;;;;;6.78;1.02;;;;;;;;;;5053450;28;20100;-63
2022/05/30 12:35:02;;;;;;;6.43;0.95;;;;;;;;;;5031970;28;20080;-62
2022/05/30 12:37:47;;;;;;;3.83;1.15;;;;;;;;;;5033989;28;20037;-62
2022/05/30 12:40:23;;;;;;;9.43;1.20;;;;;;;;;;5034170;28;20036;-62
2022/05/30 12:43:09;;;;;;;5.20;0.80;;;;;;;;;;5018681;28;20380;-62
2022/05/30 12:45:38;;;;;;;3.40;1.10;;;;;;;;;;5033008;28;20040;-61
2022/05/30 12:48:11;;;;;;;11.70;1.10;;;;;;;;;;5034170;28;20051;-62
2022/05/30 12:50:58;;;;;;;5.15;0.93;;;;;;;;;;5033077;28;20052;-60
2022/05/30 12:53:26;;;;;;;7.38;1.48;;;;;;;;;;5035220;28;20028;-60
2022/05/30 12:55:54;;;;;;;7.97;1.40;;;;;;;;;;5041643;28;20042;-62
2022/05/30 12:58:44;;;;;;;10.32;1.70;;;;;;;;;;5036638;28;20039;-60
2022/05/30 13:01:11;;;;;;;7.38;1.35;;;;;;;;;;4989259;28;20124;-60
2022/05/30 13:03:42;;;;;;;7.10;1.55;;;;;;;;;;5032779;28;20037;-60
2022/05/30 13:06:15;;;;;;;1.83;1.10;;;;;;;;;;5033016;28;20030;-62
2022/05/30 13:08:55;;;;;;;5.35;1.40;;;;;;;;;;5033128;28;20037;-62
2022/05/30 13:11:31;;;;;;;5.72;1.10;;;;;;;;;;5033632;28;20040;-62
2022/05/30 13:14:01;;;;;;;6.03;1.50;;;;;;;;;;5033106;28;20036;-61
2022/05/30 13:16:34;;;;;;;3.20;0.90;;;;;;;;;;5032618;28;20487;-61
2022/05/30 13:19:04;;;;;;;6.88;1.35;;;;;;;;;;5017276;28;20557;-57
2022/05/30 13:21:31;;;;;;;2.95;0.80;;;;;;;;;;5044014;28;20086;-60
2022/05/30 13:24:00;;;;;;;7.82;1.33;;;;;;;;;;5048250;28;20037;-62
2022/05/30 13:26:33;;;;;;;7.63;1.35;;;;;;;;;;5051824;28;20112;-61
2022/05/30 13:29:01;;;;;;;11.02;1.27;;;;;;;;;;5052879;28;20116;-61
2022/05/30 13:31:29;;;;;;;5.90;1.30;;;;;;;;;;5050794;28;20114;-60
2022/05/30 13:33:56;;;;;;;5.22;1.23;;;;;;;;;;5051536;28;20049;-63
2022/05/30 13:36:29;;;;;;;4.90;1.45;;;;;;;;;;5022722;28;20048;-61
2022/05/30 13:38:56;;;;;;;6.13;1.02;;;;;;;;;;5050819;28;20029;-63
2022/05/30 13:41:23;;;;;;;3.80;1.00;;;;;;;;;;5052885;28;20395;-63
2022/05/30 13:43:55;;;;;;;4.25;1.10;;;;;;;;;;5052381;28;20071;-62
2022/05/30 13:46:43;;;;;;;6.03;1.00;;;;;;;;;;5052060;28;20122;-64
2022/05/30 13:49:10;;;;;;;8.43;1.30;;;;;;;;;;5052526;28;20078;-62
2022/05/30 13:51:39;;;;;;;4.95;0.88;;;;;;;;;;5052065;28;20032;-62
2022/05/30 13:54:09;;;;;;;6.10;1.17;;;;;;;;;;5051792;28;20110;-61
2022/05/30 13:56:41;;;;;;;4.93;1.20;;;;;;;;;;5052051;28;20049;-60
2022/05/30 13:59:21;;;;;;;5.00;0.85;;;;;;;;;;5050873;28;20037;-62
2022/05/30 14:01:55;;;;;;;8.77;1.02;;;;;;;;;;5051885;28;20437;-60
2022/05/30 14:04:25;;;;;;;9.45;1.10;;;;;;;;;;5042090;28;20025;-60
2022/05/30 14:06:52;;;;;;;4.47;0.95;;;;;;;;;;5034257;28;20045;-60
2022/05/30 14:09:20;;;;;;;6.43;0.85;;;;;;;;;;5032482;28;20037;-62
2022/05/30 14:11:51;;;;;;;3.88;0.90;;;;;;;;;;5033132;28;20026;-61
2022/05/30 14:14:38;;;;;;;5.60;0.80;;;;;;;;;;5031945;28;20033;-62
2022/05/30 14:17:05;;;;;;;5.20;0.88;;;;;;;;;;5031664;28;20045;-62
2022/05/30 14:19:35;;;;;;;6.25;0.90;;;;;;;;;;5031185;28;20057;-61
2022/05/30 14:22:11;;;;;;;2.70;0.50;;;;;;;;;;5014767;28;20045;-60
2022/05/30 14:24:43;;;;;;;5.82;0.90;;;;;;;;;;5034066;28;20087;-61
2022/05/30 14:27:22;;;;;;;4.78;0.70;;;;;;;;;;5032097;28;20546;-61
2022/05/30 14:29:49;;;;;;;7.47;0.93;;;;;;;;;;5015766;28;20025;-62
2022/05/30 14:32:19;;;;;;;4.45;0.60;;;;;;;;;;5038187;28;20482;-62
2022/05/30 14:35:04;;;;;;;2.90;0.90;;;;;;;;;;5048742;28;20524;-60
2022/05/30 14:37:31;;;;;;;5.78;1.00;;;;;;;;;;5036896;28;20112;-60
2022/05/30 14:40:01;;;;;;;4.63;0.90;;;;;;;;;;5031070;28;20047;-54
2022/05/30 14:42:33;;;;;;;4.32;0.73;;;;;;;;;;5034042;28;20589;-64
2022/05/30 14:44:59;;;;;;;;;;;;;;;;;;5033869;28;20505;-62
2022/05/30 14:47:31;;;;;;;6.15;0.90;;;;;;;;;;5030379;28;19909;-60
2022/05/30 14:50:04;;;;;;;5.32;0.88;;;;;;;;;;5039550;28;20032;-63
2022/05/30 14:52:34;;;;;;;4.32;0.93;;;;;;;;;;5043659;28;20033;-53
2022/05/30 14:55:18;;;;;;;3.78;1.02;;;;;;;;;;5050979;28;20028;-51
2022/05/30 14:57:46;;;;;;;7.10;0.82;;;;;;;;;;5051477;28;20068;-59
2022/05/30 15:00:24;;;;;;;5.65;1.08;;;;;;;;;;5048059;28;20029;-56
2022/05/30 15:05:36;;;;;;;8.68;1.55;;;;;;;;;;5048216;28;20513;-58
2022/05/30 15:08:04;;;;;;;6.57;1.48;;;;;;;;;;5050246;28;20029;-55
2022/05/30 15:10:31;;;;;;;3.30;1.50;;;;;;;;;;5051557;28;20029;-55
2022/05/30 15:12:58;;;;;;;11.20;1.42;;;;;;;;;;5049945;28;20568;-51
2022/05/30 15:15:25;;;;;;;5.30;1.80;;;;;;;;;;5050976;28;20063;-56
2022/05/30 15:17:52;;;;;;;6.40;1.73;;;;;;;;;;5038063;28;20033;-56
2022/05/30 15:20:19;;;;;;;10.50;1.92;;;;;;;;;;5035813;28;20025;-55
2022/05/30 15:22:48;;;;;;;11.32;1.83;;;;;;;;;;5047656;28;20032;-54
2022/05/30 15:25:16;;;;;;;9.40;1.98;;;;;;;;;;5039901;28;20515;-52